Данни от 24.01.2019 г. 00:30:58

Температура вътрешна: 21.8 °C
Температура външна: 8.3 °C
Атмосферно налягане: 981.0 hPa
Атмосферно налягане на морско равнище: 998.5 hPa
Влажност: 47.6 %



История от последните 24 часа

Дата и часTin [°C]P [hPa]Psl [hPa]H [%]Tout [°C]
   24.01.2019 г. 00:30:58      21.8      981.0      998.5      47.6      8.3   
   24.01.2019 г. 00:00:58      21.8      981.2      998.7      48.4      7.3   
   23.01.2019 г. 23:30:58      21.8      981.4      998.9      48.2      4.1   
   23.01.2019 г. 23:00:58      21.7      981.8      999.4      47.7      3.6   
   23.01.2019 г. 22:30:58      21.6      981.7      999.3      47.6      3.5   
   23.01.2019 г. 22:00:58      21.5      982.5      1000.0      46.9      3.4   
   23.01.2019 г. 21:30:58      21.3      982.9      1000.4      47.5      3.5   
   23.01.2019 г. 21:00:58      21.3      982.5      1000.0      48.2      3.6   
   23.01.2019 г. 20:30:58      21.3      983.0      1000.6      47.6      3.9   
   23.01.2019 г. 20:00:58      21.2      983.2      1000.8      47.3      3.9   
   23.01.2019 г. 19:30:58      21.0      983.2      1000.8      47.4      4.1   
   23.01.2019 г. 19:00:58      21.0      983.6      1001.1      47.5      4.0   
   23.01.2019 г. 18:30:58      21.1      983.6      1001.2      47.0      4.1   
   23.01.2019 г. 18:00:58      21.0      984.1      1001.6      47.0      4.1   
   23.01.2019 г. 17:30:58      20.8      984.3      1001.9      45.4      4.3   
   23.01.2019 г. 17:00:58      20.7      984.4      1002.0      45.9      4.4   
   23.01.2019 г. 16:30:58      20.6      984.7      1002.3      45.8      4.4   
   23.01.2019 г. 16:00:58      20.3      984.8      1002.3      45.5      4.5   
   23.01.2019 г. 15:30:58      20.0      984.9      1002.5      45.6      4.5   
   23.01.2019 г. 15:00:58      19.8      985.2      1002.8      45.5      4.3   
   23.01.2019 г. 14:30:58      19.8      985.2      1002.7      45.8      4.0   
   23.01.2019 г. 14:00:58      19.9      985.3      1002.9      46.8      4.0   
   23.01.2019 г. 13:30:58      20.0      985.8      1003.4      46.6      3.8   
   23.01.2019 г. 13:00:58      20.1      986.1      1003.7      46.8      3.8   
   23.01.2019 г. 12:30:58      20.2      986.1      1003.7      47.7      3.6   
   23.01.2019 г. 12:00:58      20.3      986.4      1004.0      47.8      3.5   
   23.01.2019 г. 11:30:58      20.4      987.0      1004.6      47.3      3.5   
   23.01.2019 г. 11:00:58      20.5      987.2      1004.8      47.8      3.3   
   23.01.2019 г. 10:30:58      20.6      987.2      1004.9      47.7      3.1   
   23.01.2019 г. 10:00:58      20.7      987.0      1004.6      47.8      3.0   
   23.01.2019 г. 09:30:58      20.8      986.8      1004.5      47.9      2.8   
   23.01.2019 г. 09:00:58      21.0      987.0      1004.6      47.6      2.6   
   23.01.2019 г. 08:30:58      21.1      987.0      1004.6      46.0      2.4   
   23.01.2019 г. 08:00:58      21.2      986.9      1004.5      45.7      2.9   
   23.01.2019 г. 07:30:58      21.5      987.0      1004.6      47.0      3.0   
   23.01.2019 г. 07:00:58      21.7      986.9      1004.5      47.4      3.5   
   23.01.2019 г. 06:30:57      21.7      986.7      1004.3      47.2      3.4   
   23.01.2019 г. 06:00:58      21.8      986.4      1004.0      48.2      4.0   
   23.01.2019 г. 05:30:58      22.1      986.0      1003.6      49.8      4.6   
   23.01.2019 г. 05:00:58      22.1      986.3      1003.9      48.6      5.6   
   23.01.2019 г. 04:30:58      22.0      986.3      1003.9      48.5      6.3   
   23.01.2019 г. 04:00:58      22.0      986.7      1004.3      48.6      6.6   
   23.01.2019 г. 03:30:58      22.1      986.8      1004.5      48.4      6.8   
   23.01.2019 г. 03:00:58      22.0      986.9      1004.5      49.0      6.8   
   23.01.2019 г. 02:30:58      22.0      987.4      1005.1      47.9      6.6   
   23.01.2019 г. 02:00:58      21.9      987.9      1005.6      47.9      6.8   
   23.01.2019 г. 01:30:58      21.9      988.4      1006.1      47.7      6.9   
   23.01.2019 г. 01:00:58      21.8      988.9      1006.6      46.2      7.0   

BaroSL graphic

TEMPE graphic